Time;durP1;ratioP1;P1;durP2;ratioP2;P2;SDS_P1;SDS_P2;PMS_P1;PMS_P2;Temp;Humidity;BMP_temperature;BMP_pressure;BME280_temperature;BME280_humidity;BME280_pressure;Samples;Min_cycle;Max_cycle;Signal;HPM_P1;HPM_P2
2021/09/14 18:42:41;;;;;;;7.03;4.35;;;;;;;17.56;72.35;146573.16;1831902;77;28548;-61
2021/09/14 18:45:23;;;;;;;7.75;4.70;;;;;;;17.56;72.68;146573.16;1888388;76;22278;-63
2021/09/14 18:47:58;;;;;;;7.42;4.33;;;;;;;17.57;72.92;146575.66;1853435;76;27987;-65
2021/09/14 18:50:34;;;;;;;7.10;4.10;;;;;;;17.70;72.67;146605.94;1873474;76;27952;-63
2021/09/14 18:53:10;;;;;;;6.12;3.98;;;;;;;17.67;72.16;146598.38;1870390;76;22144;-64
2021/09/14 18:55:46;;;;;;;8.23;4.70;;;;;;;17.73;72.40;146613.48;1846680;76;28072;-64
2021/09/14 18:58:23;;;;;;;7.67;4.87;;;;;;;17.74;72.15;146616.05;1852814;75;22222;-62
2021/09/14 19:01:03;;;;;;;9.43;4.87;;;;;;;17.62;72.26;146585.77;1848432;76;22626;-63
2021/09/14 19:03:39;;;;;;;7.53;4.45;;;;;;;17.48;72.64;146553.00;1869051;76;22175;-65
2021/09/14 19:06:17;;;;;;;8.13;5.15;;;;;;;17.36;73.23;146522.72;1872634;76;27929;-64
2021/09/14 19:09:18;;;;;;;10.15;5.28;;;;;;;17.32;73.64;146512.63;1889825;76;22208;-59
2021/09/14 19:11:53;;;;;;;10.03;6.12;;;;;;;17.22;74.01;146488.66;1870588;76;22141;-60
2021/09/14 19:14:56;;;;;;;11.70;6.20;;;;;;;17.10;74.52;146459.69;1869706;76;22169;-59
2021/09/14 19:17:31;;;;;;;13.62;6.40;;;;;;;17.01;74.88;146435.73;1845804;76;22160;-61
2021/09/14 19:20:11;;;;;;;11.88;6.37;;;;;;;16.91;75.39;146413.03;1873541;76;22216;-59
2021/09/14 19:22:48;;;;;;;9.55;6.35;;;;;;;16.81;75.90;146387.81;1889864;76;22167;-60
2021/09/14 19:25:22;;;;;;;10.43;6.50;;;;;;;16.72;76.27;146365.12;1890026;76;22112;-58
2021/09/14 19:27:57;;;;;;;11.40;7.22;;;;;;;16.66;76.62;146351.27;1889820;76;22115;-61
2021/09/14 19:30:32;;;;;;;13.10;7.17;;;;;;;16.63;76.87;146343.67;1870481;76;22136;-59
2021/09/14 19:33:11;;;;;;;10.08;5.97;;;;;;;16.59;77.11;146332.31;1870561;76;22224;-59
2021/09/14 19:35:46;;;;;;;9.55;6.10;;;;;;;16.54;77.40;146321.02;1870509;76;22658;-57
2021/09/14 19:38:21;;;;;;;10.58;5.80;;;;;;;16.50;77.41;146310.92;1870592;76;22141;-58
2021/09/14 19:41:02;;;;;;;9.28;6.40;;;;;;;16.47;77.67;146303.38;1869753;76;22575;-61
2021/09/14 19:43:43;;;;;;;11.00;5.97;;;;;;;16.43;77.87;146294.52;1841192;76;22191;-63
2021/09/14 19:46:18;;;;;;;12.85;6.28;;;;;;;16.41;77.92;146288.22;1870672;76;22570;-58
2021/09/14 19:49:13;;;;;;;9.65;5.58;;;;;;;16.39;78.10;146283.22;1870412;76;22141;-59
2021/09/14 19:51:54;;;;;;;9.98;5.97;;;;;;;16.34;78.04;146270.62;1869595;76;22140;-60
2021/09/14 19:54:37;;;;;;;11.48;6.53;;;;;;;16.28;78.32;146258.03;1889862;76;22191;-60
2021/09/14 19:57:32;;;;;;;11.10;6.40;;;;;;;16.24;78.56;146247.94;1870352;76;22181;-56
2021/09/14 20:00:14;;;;;;;12.28;7.12;;;;;;;16.22;78.86;146241.63;1889804;76;22223;-58
2021/09/14 20:02:49;;;;;;;11.53;6.47;;;;;;;16.18;79.30;146232.83;1870607;76;22145;-61
2021/09/14 20:05:24;;;;;;;9.53;5.97;;;;;;;16.13;79.65;146220.23;1889876;76;22108;-63
2021/09/14 20:07:59;;;;;;;12.05;6.72;;;;;;;16.08;79.92;146207.64;1870637;76;22235;-61
2021/09/14 20:10:36;;;;;;;15.93;6.58;;;;;;;16.03;80.45;146195.05;1870510;76;22155;-59
2021/09/14 20:13:11;;;;;;;12.30;6.33;;;;;;;15.97;80.84;146179.91;1870627;76;22141;-60
2021/09/14 20:15:46;;;;;;;13.13;6.78;;;;;;;15.94;80.95;146172.34;1890005;76;22165;-61
2021/09/14 20:18:21;;;;;;;11.22;6.90;;;;;;;15.91;81.37;146164.81;1870595;76;22149;-58
2021/09/14 20:20:57;;;;;;;11.80;7.00;;;;;;;15.88;81.50;146158.50;1889858;76;22135;-61
2021/09/14 20:23:51;;;;;;;9.70;6.00;;;;;;;15.84;81.67;146149.67;1870595;76;22559;-59
2021/09/14 20:26:28;;;;;;;13.03;7.35;;;;;;;15.81;81.83;146140.88;1870365;76;22152;-60
2021/09/14 20:29:04;;;;;;;13.08;7.70;;;;;;;15.79;81.90;146135.83;1854512;76;28317;-57
2021/09/14 20:31:38;;;;;;;11.48;7.33;;;;;;;15.81;81.88;146142.13;1870489;76;22167;-57
2021/09/14 20:34:19;;;;;;;13.88;7.58;;;;;;;15.79;81.94;146137.06;1869731;76;22157;-61
2021/09/14 20:36:54;;;;;;;11.97;7.15;;;;;;;15.75;82.08;146125.78;1889904;76;22571;-60
2021/09/14 20:39:29;;;;;;;11.78;7.90;;;;;;;15.71;82.28;146116.94;1870570;76;22156;-58
2021/09/14 20:42:04;;;;;;;14.47;7.12;;;;;;;15.69;82.36;146110.59;1889824;76;22147;-59
2021/09/14 20:44:58;;;;;;;9.93;6.53;;;;;;;15.66;82.48;146103.05;1870716;76;22160;-60
2021/09/14 20:47:33;;;;;;;11.12;6.60;;;;;;;15.61;82.62;146091.70;1870608;76;22137;-61
2021/09/14 20:50:11;;;;;;;11.93;7.67;;;;;;;15.58;82.61;146084.16;1870692;76;22109;-60
2021/09/14 20:52:44;;;;;;;14.55;7.28;;;;;;;15.56;82.71;146079.11;1870832;76;22120;-59
2021/09/14 20:55:19;;;;;;;13.08;7.33;;;;;;;15.53;82.87;146071.56;1870633;76;22182;-57
2021/09/14 20:57:54;;;;;;;10.05;6.28;;;;;;;15.51;82.91;146066.52;1870493;76;22160;-61
2021/09/14 21:00:48;;;;;;;12.15;6.60;;;;;;;15.47;82.92;146057.72;1870506;76;22252;-60
2021/09/14 21:03:23;;;;;;;10.53;6.25;;;;;;;15.41;83.13;146043.84;1870653;76;22153;-62
2021/09/14 21:06:07;;;;;;;13.48;8.00;;;;;;;15.38;83.36;146036.30;1889867;76;22602;-60
2021/09/14 21:08:42;;;;;;;11.78;7.12;;;;;;;15.34;83.60;146026.25;1870298;76;22547;-61
2021/09/14 21:11:18;;;;;;;11.30;7.22;;;;;;;15.34;83.74;146026.25;1870657;76;22194;-60
2021/09/14 21:13:53;;;;;;;13.88;8.38;;;;;;;15.33;83.85;146022.47;1870726;76;22135;-62
2021/09/14 21:16:28;;;;;;;12.78;7.62;;;;;;;15.30;83.83;146016.16;1870696;76;22558;-62
2021/09/14 21:19:23;;;;;;;12.82;7.12;;;;;;;15.27;84.18;146008.62;1889905;76;22566;-61
2021/09/14 21:21:57;;;;;;;11.78;7.35;;;;;;;15.24;84.29;145999.78;1870734;76;22128;-63
2021/09/14 21:24:32;;;;;;;14.58;8.15;;;;;;;15.21;84.32;145993.48;1889947;76;22140;-61
2021/09/14 21:27:10;;;;;;;12.33;6.22;;;;;;;15.18;84.35;145985.94;1870649;76;22164;-61
2021/09/14 21:29:44;;;;;;;11.10;6.53;;;;;;;15.19;84.08;145988.48;1870814;76;22121;-62
2021/09/14 21:32:25;;;;;;;14.80;6.92;;;;;;;15.26;84.17;146006.08;1869774;76;22561;-63
2021/09/14 21:35:01;;;;;;;16.73;7.85;;;;;;;15.28;83.98;146011.13;1870698;76;22189;-62
2021/09/14 21:37:36;;;;;;;12.00;6.92;;;;;;;15.29;84.21;146013.67;1889883;76;22151;-62
2021/09/14 21:40:12;;;;;;;12.25;7.60;;;;;;;15.29;84.41;146013.67;1854746;76;38635;-62
2021/09/14 21:43:05;;;;;;;14.58;7.87;;;;;;;15.36;84.10;146031.25;1870639;76;22563;-61
2021/09/14 21:45:40;;;;;;;14.95;8.75;;;;;;;15.32;83.96;146021.20;1870648;76;22133;-61
2021/09/14 21:48:15;;;;;;;12.95;7.50;;;;;;;15.25;84.12;146003.58;1870748;76;22113;-65
2021/09/14 21:50:49;;;;;;;9.85;6.80;;;;;;;15.17;84.42;145983.44;1889942;76;22527;-63
2021/09/14 21:53:24;;;;;;;13.32;8.15;;;;;;;15.11;84.36;145968.31;1889921;76;22148;-65
2021/09/14 21:55:59;;;;;;;11.63;6.35;;;;;;;15.08;84.57;145960.77;1889985;76;22131;-62
2021/09/14 21:58:34;;;;;;;9.75;6.12;;;;;;;15.04;84.59;145950.73;1863922;76;22144;-64
2021/09/14 22:01:08;;;;;;;10.58;6.35;;;;;;;15.03;84.65;145948.19;1849455;76;22214;-62
2021/09/14 22:04:06;;;;;;;12.43;7.50;;;;;;;15.04;84.54;145950.73;1877993;76;22206;-66
2021/09/14 22:06:41;;;;;;;14.13;7.15;;;;;;;14.98;84.46;145938.14;1870723;76;22140;-66
2021/09/14 22:09:16;;;;;;;13.78;6.92;;;;;;;14.93;84.70;145925.56;1870643;76;22582;-66
2021/09/14 22:11:51;;;;;;;12.15;7.08;;;;;;;14.89;84.96;145914.22;1870660;76;22149;-62
2021/09/14 22:14:26;;;;;;;13.78;7.67;;;;;;;14.83;85.37;145900.34;1870664;76;22626;-65
2021/09/14 22:17:22;;;;;;;12.05;8.18;;;;;;;14.79;85.94;145889.06;1854779;76;27917;-62
2021/09/14 22:20:17;;;;;;;12.73;8.28;;;;;;;14.78;86.13;145886.52;1870410;76;22560;-64
2021/09/14 22:22:53;;;;;;;12.43;8.80;;;;;;;14.72;86.47;145872.69;1873885;76;38324;-65
2021/09/14 22:25:47;;;;;;;13.28;8.48;;;;;;;14.72;86.66;145873.94;1870652;76;22108;-62
2021/09/14 22:28:22;;;;;;;11.12;6.87;;;;;;;14.66;86.77;145857.59;1870650;76;22149;-64
2021/09/14 22:30:56;;;;;;;11.90;6.95;;;;;;;14.60;86.93;145842.47;1870707;76;22137;-64
2021/09/14 22:33:31;;;;;;;9.83;6.17;;;;;;;14.52;87.23;145824.81;1870767;76;22164;-66
2021/09/14 22:36:25;;;;;;;12.85;6.65;;;;;;;14.47;87.30;145812.22;1870636;76;22543;-61
2021/09/14 22:39:00;;;;;;;10.35;6.03;;;;;;;14.44;87.23;145804.69;1870673;76;22140;-62
2021/09/14 22:41:35;;;;;;;9.25;5.67;;;;;;;14.42;86.96;145798.39;1870695;76;22179;-63
2021/09/14 22:44:11;;;;;;;11.63;6.75;;;;;;;14.39;86.44;145792.09;1889926;76;22155;-64
2021/09/14 22:46:49;;;;;;;11.63;6.37;;;;;;;14.35;87.06;145782.06;1870677;76;22105;-60
2021/09/14 22:49:23;;;;;;;11.40;6.65;;;;;;;14.28;87.45;145764.45;1870647;76;22105;-62
2021/09/14 22:51:58;;;;;;;11.57;6.75;;;;;;;14.24;87.88;145755.61;1870699;76;22097;-64
2021/09/14 22:54:33;;;;;;;11.15;6.40;;;;;;;14.21;87.99;145746.83;1870674;76;22164;-64
2021/09/14 22:57:09;;;;;;;11.88;6.05;;;;;;;14.18;88.21;145739.30;1870471;76;22164;-65
2021/09/14 22:59:44;;;;;;;8.45;5.22;;;;;;;14.14;88.08;145729.22;1870633;76;22138;-64
2021/09/14 23:02:19;;;;;;;10.05;6.00;;;;;;;14.10;87.86;145721.67;1870669;76;22120;-64
2021/09/14 23:04:54;;;;;;;11.10;5.90;;;;;;;14.08;87.85;145716.63;1889982;76;22144;-63
2021/09/14 23:07:36;;;;;;;11.35;5.83;;;;;;;14.05;87.73;145709.09;1889969;76;22217;-64
2021/09/14 23:10:12;;;;;;;12.68;5.22;;;;;;;14.03;87.60;145702.81;1870425;76;22583;-65
2021/09/14 23:12:47;;;;;;;9.93;5.90;;;;;;;13.97;87.65;145688.98;1870715;76;22149;-60
2021/09/14 23:15:22;;;;;;;14.10;5.85;;;;;;;13.95;87.98;145682.70;1889947;76;22569;-66
2021/09/14 23:17:57;;;;;;;9.48;5.80;;;;;;;13.90;88.17;145671.37;1889969;76;22140;-65
2021/09/14 23:20:33;;;;;;;10.50;6.17;;;;;;;13.88;88.15;145666.34;1870356;76;22280;-62
2021/09/14 23:23:09;;;;;;;9.18;6.20;;;;;;;13.87;88.03;145663.84;1889969;76;22163;-65
2021/09/14 23:25:43;;;;;;;12.68;5.95;;;;;;;13.84;87.82;145656.25;1889967;76;22123;-62
2021/09/14 23:28:19;;;;;;;10.38;5.80;;;;;;;13.81;87.42;145648.72;1870616;76;22166;-67
2021/09/14 23:30:54;;;;;;;10.30;5.05;;;;;;;13.80;86.94;145646.22;1889964;76;22143;-64
2021/09/14 23:33:29;;;;;;;10.28;5.30;;;;;;;13.81;86.00;145648.72;1870653;76;22539;-67
2021/09/14 23:36:05;;;;;;;7.25;4.35;;;;;;;13.82;85.27;145652.52;1870656;76;22161;-64
2021/09/14 23:38:59;;;;;;;7.62;4.72;;;;;;;13.81;84.01;145648.72;1870655;76;22527;-66
2021/09/14 23:41:34;;;;;;;8.63;4.15;;;;;;;13.80;83.49;145646.22;1870705;76;22153;-66
2021/09/14 23:44:08;;;;;;;10.98;4.45;;;;;;;13.76;81.99;145637.39;1870657;76;22173;-68
2021/09/14 23:46:44;;;;;;;8.25;4.03;;;;;;;13.77;82.12;145639.94;1889997;76;22547;-66
2021/09/14 23:49:20;;;;;;;8.43;4.00;;;;;;;13.79;80.04;145643.69;1873950;76;27906;-66
2021/09/14 23:51:55;;;;;;;7.85;3.42;;;;;;;13.84;78.99;145656.25;1870649;76;22554;-68
2021/09/14 23:54:36;;;;;;;7.47;3.67;;;;;;;13.82;77.04;145652.52;1869813;76;22164;-70
2021/09/14 23:57:10;;;;;;;8.25;3.40;;;;;;;13.82;76.27;145651.27;1870715;76;22572;-67
2021/09/14 23:59:45;;;;;;;7.85;3.77;;;;;;;13.81;75.92;145649.97;1889968;76;22160;-63
